Time;durP1;ratioP1;P1;durP2;ratioP2;P2;SDS_P1;SDS_P2;PMS_P1;PMS_P2;Temp;Humidity;BMP_temperature;BMP_pressure;BME280_temperature;BME280_humidity;BME280_pressure;Samples;Min_cycle;Max_cycle;Signal;HPM_P1;HPM_P2
2022/03/07 00:00:56;;;;;;;14.88;9.82;;;10.20;99.90;;;;;;5036972;28;20052;-73
2022/03/07 00:03:23;;;;;;;14.85;10.45;;;10.10;99.90;;;;;;5028955;28;20211;-75
2022/03/07 00:05:49;;;;;;;17.20;10.65;;;10.20;99.90;;;;;;5036204;28;20048;-75
2022/03/07 00:08:16;;;;;;;16.08;10.68;;;10.20;99.90;;;;;;5049874;28;20037;-74
2022/03/07 00:10:43;;;;;;;15.05;9.95;;;10.20;99.90;;;;;;5052273;28;20233;-74
2022/03/07 00:13:09;;;;;;;12.98;9.80;;;10.20;99.90;;;;;;5035666;28;20044;-74
2022/03/07 00:15:36;;;;;;;15.65;10.30;;;10.20;99.90;;;;;;5052924;28;20037;-74
2022/03/07 00:18:02;;;;;;;14.35;9.77;;;10.20;99.90;;;;;;5051742;28;20037;-73
2022/03/07 00:20:27;;;;;;;14.32;9.57;;;10.20;99.90;;;;;;5040209;28;20044;-74
2022/03/07 00:22:54;;;;;;;18.80;10.07;;;10.20;99.90;;;;;;5038069;28;20098;-74
2022/03/07 00:25:20;;;;;;;14.55;10.10;;;10.20;99.90;;;;;;5038394;28;20044;-74
2022/03/07 00:27:46;;;;;;;16.92;10.15;;;10.20;99.90;;;;;;5043444;28;20041;-74
2022/03/07 00:30:15;;;;;;;15.30;10.15;;;10.20;99.90;;;;;;5051720;28;20195;-73
2022/03/07 00:32:42;;;;;;;20.02;10.70;;;10.20;99.90;;;;;;5051947;28;20107;-74
2022/03/07 00:35:10;;;;;;;17.08;10.25;;;10.20;99.90;;;;;;5053279;28;20025;-74
2022/03/07 00:37:37;;;;;;;13.88;10.60;;;10.20;99.90;;;;;;5037036;28;20103;-75
2022/03/07 00:40:05;;;;;;;16.63;10.98;;;10.10;99.90;;;;;;5034434;28;20052;-74
2022/03/07 00:42:31;;;;;;;17.42;10.80;;;10.20;99.90;;;;;;5039233;28;20040;-73
2022/03/07 00:44:57;;;;;;;16.73;10.05;;;10.20;99.90;;;;;;5051597;28;20039;-73
2022/03/07 00:47:25;;;;;;;15.45;10.75;;;10.20;99.90;;;;;;5040964;28;20446;-74
2022/03/07 00:49:52;;;;;;;18.60;10.10;;;10.10;99.90;;;;;;5038506;28;20091;-74
2022/03/07 00:52:19;;;;;;;17.63;10.60;;;10.20;99.90;;;;;;5024291;28;20095;-73
2022/03/07 00:54:45;;;;;;;18.63;10.73;;;10.10;99.90;;;;;;5048573;28;20048;-75
2022/03/07 00:57:12;;;;;;;17.40;10.23;;;10.20;99.90;;;;;;5048322;28;20028;-73
2022/03/07 00:59:38;;;;;;;20.08;10.32;;;10.20;99.90;;;;;;5042246;28;20036;-75
2022/03/07 01:02:04;;;;;;;15.85;10.18;;;10.20;99.90;;;;;;5041012;28;20577;-73
2022/03/07 01:04:30;;;;;;;15.40;9.60;;;10.20;99.90;;;;;;5038351;28;20025;-73
2022/03/07 01:06:56;;;;;;;16.35;10.30;;;10.20;99.90;;;;;;5037735;28;20029;-73
2022/03/07 01:09:23;;;;;;;14.02;10.13;;;10.20;99.90;;;;;;5037725;28;20120;-73
2022/03/07 01:11:48;;;;;;;18.17;10.20;;;10.20;99.90;;;;;;5053630;28;20096;-73
2022/03/07 01:14:15;;;;;;;12.57;9.73;;;10.20;99.90;;;;;;5037420;28;20116;-73
2022/03/07 01:16:48;;;;;;;16.23;9.73;;;10.30;99.90;;;;;;5076430;27;19929;-74
2022/03/07 01:19:14;;;;;;;20.83;10.38;;;10.20;99.90;;;;;;5066514;28;20108;-74
2022/03/07 01:21:41;;;;;;;18.75;10.80;;;10.30;99.90;;;;;;5049553;28;20131;-74
2022/03/07 01:24:08;;;;;;;26.63;10.52;;;10.30;99.90;;;;;;5064539;28;20094;-74
2022/03/07 01:26:35;;;;;;;22.83;9.93;;;10.30;99.90;;;;;;5033212;28;20075;-73
2022/03/07 01:29:02;;;;;;;19.08;10.02;;;10.30;99.90;;;;;;5053998;28;20120;-74
2022/03/07 01:31:27;;;;;;;17.25;10.60;;;10.30;99.90;;;;;;5072935;28;20381;-74
2022/03/07 01:33:54;;;;;;;14.75;10.07;;;10.30;99.90;;;;;;5056998;28;20052;-74
2022/03/07 01:36:20;;;;;;;16.33;9.40;;;10.30;99.90;;;;;;5049856;28;20122;-74
2022/03/07 01:38:45;;;;;;;17.10;9.73;;;10.30;99.90;;;;;;5064845;28;20439;-74
2022/03/07 01:41:12;;;;;;;15.48;9.13;;;10.30;99.90;;;;;;5068684;28;20058;-74
2022/03/07 01:43:39;;;;;;;17.08;9.75;;;10.30;99.90;;;;;;5069211;28;20046;-74
2022/03/07 01:46:04;;;;;;;26.73;9.68;;;10.30;99.90;;;;;;5049370;28;20134;-74
2022/03/07 01:48:31;;;;;;;16.98;9.27;;;10.30;99.90;;;;;;5055595;28;20161;-74
2022/03/07 01:50:57;;;;;;;13.88;10.48;;;10.30;99.90;;;;;;5051186;28;20098;-74
2022/03/07 01:53:23;;;;;;;15.48;9.50;;;10.30;99.90;;;;;;5052147;28;20091;-73
2022/03/07 01:55:50;;;;;;;15.85;10.13;;;10.30;99.90;;;;;;5065353;28;20045;-73
2022/03/07 01:58:16;;;;;;;15.07;9.48;;;10.40;99.90;;;;;;5069008;28;20512;-73
2022/03/07 02:00:42;;;;;;;15.20;9.00;;;10.30;99.90;;;;;;5059826;28;20090;-73
2022/03/07 02:03:08;;;;;;;13.88;9.38;;;10.30;99.90;;;;;;5053005;28;20056;-74
2022/03/07 02:05:34;;;;;;;14.07;9.15;;;10.40;99.90;;;;;;5059115;28;20052;-74
2022/03/07 02:08:01;;;;;;;19.52;9.40;;;10.40;99.90;;;;;;5059536;28;20067;-73
2022/03/07 02:10:28;;;;;;;14.23;9.13;;;10.40;99.90;;;;;;5072626;28;20507;-73
2022/03/07 02:12:54;;;;;;;13.95;9.27;;;10.40;99.90;;;;;;5050640;28;20448;-74
2022/03/07 02:15:20;;;;;;;13.57;9.02;;;10.40;99.90;;;;;;5057531;28;20044;-74
2022/03/07 02:17:47;;;;;;;17.25;9.13;;;10.30;99.90;;;;;;5069253;28;20524;-75
2022/03/07 02:20:14;;;;;;;14.68;9.43;;;10.40;99.90;;;;;;5068428;28;20588;-74
2022/03/07 02:22:41;;;;;;;14.52;8.88;;;10.40;99.90;;;;;;5076760;28;20456;-74
2022/03/07 02:25:08;;;;;;;14.20;9.35;;;10.40;99.90;;;;;;5070287;28;20101;-73
2022/03/07 02:27:34;;;;;;;14.30;9.15;;;10.40;99.90;;;;;;5048116;28;20481;-74
2022/03/07 02:30:05;;;;;;;15.27;9.05;;;10.40;99.90;;;;;;5058490;28;20048;-74
2022/03/07 02:32:32;;;;;;;15.05;9.60;;;10.30;99.90;;;;;;5042711;28;20119;-73
2022/03/07 02:34:58;;;;;;;13.23;9.68;;;10.40;99.90;;;;;;5043678;28;20120;-73
2022/03/07 02:37:24;;;;;;;12.48;9.55;;;10.40;99.90;;;;;;5037139;28;20040;-74
2022/03/07 02:39:50;;;;;;;14.07;8.82;;;10.30;99.90;;;;;;5049977;28;20094;-74
2022/03/07 02:42:16;;;;;;;17.58;9.45;;;10.30;99.90;;;;;;5057149;28;20050;-74
2022/03/07 02:44:42;;;;;;;15.57;9.55;;;10.30;99.90;;;;;;5064299;28;20037;-74
2022/03/07 02:47:13;;;;;;;13.85;9.80;;;10.30;99.90;;;;;;5052171;28;20399;-74
2022/03/07 02:49:39;;;;;;;15.88;9.07;;;10.30;99.90;;;;;;5048477;28;20062;-74
2022/03/07 02:52:08;;;;;;;15.48;9.57;;;10.30;99.90;;;;;;5051100;28;20033;-74
2022/03/07 02:54:34;;;;;;;14.15;9.13;;;10.30;99.90;;;;;;5055707;28;20116;-74
2022/03/07 02:57:00;;;;;;;13.13;8.65;;;10.30;99.90;;;;;;5055259;28;20148;-74
2022/03/07 02:59:26;;;;;;;20.73;10.18;;;10.30;99.90;;;;;;5058415;28;20032;-74
2022/03/07 03:01:53;;;;;;;18.05;10.02;;;10.30;99.90;;;;;;5056859;28;20037;-74
2022/03/07 03:04:19;;;;;;;15.65;8.93;;;10.30;99.90;;;;;;5050669;28;20670;-73
2022/03/07 03:06:45;;;;;;;20.58;9.38;;;10.30;99.90;;;;;;5039638;28;20465;-74
2022/03/07 03:09:11;;;;;;;16.70;9.52;;;10.30;99.90;;;;;;5052246;28;20123;-73
2022/03/07 03:11:38;;;;;;;14.88;9.70;;;10.30;99.90;;;;;;5058877;28;20039;-72
2022/03/07 03:14:06;;;;;;;17.17;9.57;;;10.30;99.90;;;;;;5038740;28;20116;-74
2022/03/07 03:16:32;;;;;;;17.33;9.43;;;10.30;99.90;;;;;;5050557;28;20042;-73
2022/03/07 03:19:00;;;;;;;14.23;9.18;;;10.30;99.90;;;;;;5063693;28;20520;-73
2022/03/07 03:21:27;;;;;;;15.55;9.57;;;10.30;99.90;;;;;;5030800;28;20037;-73
2022/03/07 03:23:54;;;;;;;18.50;9.95;;;10.30;99.90;;;;;;5037937;28;20455;-74
2022/03/07 03:26:20;;;;;;;15.27;9.27;;;10.30;99.90;;;;;;5038093;28;20043;-74
2022/03/07 03:28:45;;;;;;;15.63;9.80;;;10.30;99.90;;;;;;5059058;28;20479;-75
2022/03/07 03:31:11;;;;;;;15.52;9.50;;;10.30;99.90;;;;;;5053637;28;20099;-75
2022/03/07 03:33:38;;;;;;;13.43;9.65;;;10.20;99.90;;;;;;5059831;28;20048;-74
2022/03/07 03:36:05;;;;;;;13.73;9.13;;;10.30;99.90;;;;;;5055726;28;20061;-73
2022/03/07 03:38:31;;;;;;;17.85;9.70;;;10.30;99.90;;;;;;5057852;28;20042;-73
2022/03/07 03:40:57;;;;;;;19.10;9.48;;;10.30;99.90;;;;;;5031321;28;20370;-74
2022/03/07 03:43:23;;;;;;;12.57;8.80;;;10.30;99.90;;;;;;5049926;28;20051;-74
2022/03/07 03:45:48;;;;;;;14.25;9.02;;;10.30;99.90;;;;;;5035008;28;20041;-74
2022/03/07 03:48:14;;;;;;;17.42;9.88;;;10.30;99.90;;;;;;5034422;28;20029;-73
2022/03/07 03:50:40;;;;;;;14.68;10.30;;;10.30;99.90;;;;;;5050741;28;20209;-73
2022/03/07 03:53:06;;;;;;;12.48;9.73;;;10.20;99.90;;;;;;5053909;28;20048;-74
2022/03/07 03:55:32;;;;;;;14.65;10.02;;;10.20;99.90;;;;;;5066092;28;20736;-74
2022/03/07 03:57:58;;;;;;;14.38;10.23;;;10.20;99.90;;;;;;5032308;28;20033;-74
2022/03/07 04:00:24;;;;;;;17.38;9.45;;;10.20;99.90;;;;;;5052515;28;20029;-74
2022/03/07 04:02:51;;;;;;;14.98;10.40;;;10.10;99.90;;;;;;5034101;28;20056;-74
2022/03/07 04:05:17;;;;;;;17.17;10.38;;;10.10;99.90;;;;;;5031011;28;20052;-74
2022/03/07 04:07:44;;;;;;;16.52;10.90;;;10.20;99.90;;;;;;5043248;28;20032;-74
2022/03/07 04:10:13;;;;;;;16.77;10.50;;;10.20;99.90;;;;;;5052028;28;20036;-74
2022/03/07 04:12:38;;;;;;;16.73;11.18;;;10.10;99.90;;;;;;5032089;28;20481;-75
2022/03/07 04:15:05;;;;;;;16.05;10.63;;;10.10;99.90;;;;;;5038036;28;20121;-74
2022/03/07 04:17:31;;;;;;;17.25;10.93;;;9.90;99.90;;;;;;5051664;28;20036;-75
2022/03/07 04:19:57;;;;;;;14.50;10.88;;;9.80;99.90;;;;;;5058773;28;20029;-75
2022/03/07 04:22:23;;;;;;;14.73;11.38;;;9.80;99.90;;;;;;5052024;28;20033;-75
2022/03/07 04:24:49;;;;;;;19.30;11.52;;;9.70;99.90;;;;;;5036328;28;20037;-75
2022/03/07 04:27:15;;;;;;;20.85;11.82;;;9.70;99.90;;;;;;5055829;28;20040;-74
2022/03/07 04:29:41;;;;;;;14.77;11.60;;;9.60;99.90;;;;;;5054783;28;20472;-74
2022/03/07 04:32:07;;;;;;;19.75;12.02;;;9.60;99.90;;;;;;5044585;28;20207;-75
2022/03/07 04:34:33;;;;;;;18.10;11.52;;;9.60;99.90;;;;;;5051441;28;20120;-75
2022/03/07 04:37:00;;;;;;;16.63;11.32;;;9.60;99.90;;;;;;5031884;28;20481;-74
2022/03/07 04:39:27;;;;;;;18.92;11.70;;;9.60;99.90;;;;;;5041635;28;20067;-74
2022/03/07 04:41:53;;;;;;;15.95;11.73;;;9.60;99.90;;;;;;5062712;28;20047;-74
2022/03/07 04:44:19;;;;;;;16.30;11.38;;;9.60;99.90;;;;;;5040119;28;20049;-74
2022/03/07 04:46:45;;;;;;;17.65;12.75;;;9.60;99.90;;;;;;5038258;28;20025;-75
2022/03/07 04:49:11;;;;;;;20.35;11.70;;;9.60;99.90;;;;;;5037166;28;20039;-75
2022/03/07 04:51:39;;;;;;;18.63;11.75;;;9.60;99.90;;;;;;5031811;28;20752;-74
2022/03/07 04:54:07;;;;;;;16.65;11.50;;;9.60;99.90;;;;;;5047472;28;20033;-75
2022/03/07 04:56:33;;;;;;;19.75;11.85;;;9.70;99.90;;;;;;5038870;28;20041;-74
2022/03/07 04:59:00;;;;;;;18.30;12.57;;;9.70;99.90;;;;;;5033366;28;20135;-74
2022/03/07 05:01:25;;;;;;;15.80;12.10;;;9.70;99.90;;;;;;5033124;28;20038;-74
2022/03/07 05:03:52;;;;;;;16.67;11.63;;;9.70;99.90;;;;;;5035657;28;20051;-75
2022/03/07 05:06:18;;;;;;;17.77;11.95;;;9.80;99.90;;;;;;5035553;28;20118;-75
2022/03/07 05:08:44;;;;;;;16.80;11.43;;;9.80;99.90;;;;;;5035700;28;20758;-75
2022/03/07 05:11:10;;;;;;;14.10;11.57;;;9.90;99.90;;;;;;5049502;28;20041;-75
2022/03/07 05:13:36;;;;;;;18.60;11.30;;;9.90;99.90;;;;;;5056680;28;20583;-75
2022/03/07 05:16:03;;;;;;;16.52;11.80;;;9.90;99.90;;;;;;5041003;28;20041;-76
2022/03/07 05:18:29;;;;;;;18.70;10.93;;;9.90;99.90;;;;;;5043926;28;20028;-76
2022/03/07 05:20:55;;;;;;;19.60;12.30;;;10.00;99.90;;;;;;5061533;28;20101;-76
2022/03/07 05:23:20;;;;;;;20.02;12.35;;;10.00;99.90;;;;;;5056255;28;20037;-74
2022/03/07 05:25:46;;;;;;;17.63;11.70;;;10.10;99.90;;;;;;5055132;28;20033;-75
2022/03/07 05:28:13;;;;;;;17.90;11.68;;;10.20;99.90;;;;;;5035085;28;20397;-74
2022/03/07 05:30:39;;;;;;;15.95;11.13;;;10.20;99.90;;;;;;5055286;28;20072;-74
2022/03/07 05:33:05;;;;;;;17.27;11.65;;;10.20;99.90;;;;;;5058502;28;20081;-74
2022/03/07 05:35:31;;;;;;;17.83;11.23;;;10.20;99.90;;;;;;5057540;28;20049;-74
2022/03/07 05:37:57;;;;;;;14.60;11.65;;;10.20;99.90;;;;;;5043273;28;20127;-75
2022/03/07 05:40:23;;;;;;;16.55;11.48;;;10.20;99.90;;;;;;5038440;28;20555;-76
2022/03/07 05:42:49;;;;;;;21.75;11.98;;;10.30;99.90;;;;;;5053298;28;20044;-75
2022/03/07 05:45:15;;;;;;;18.45;11.52;;;10.20;99.90;;;;;;5052147;28;20056;-74
2022/03/07 05:47:42;;;;;;;16.73;11.40;;;10.20;99.90;;;;;;5056319;28;20110;-75
2022/03/07 05:50:09;;;;;;;15.18;12.18;;;10.20;99.90;;;;;;5059913;28;20477;-75
2022/03/07 05:52:36;;;;;;;18.88;12.00;;;10.20;99.90;;;;;;5040298;28;20148;-75
2022/03/07 05:55:05;;;;;;;16.60;12.50;;;10.20;99.90;;;;;;5034906;28;20092;-74
2022/03/07 05:57:31;;;;;;;18.50;12.50;;;10.20;99.90;;;;;;5057022;28;20033;-76
2022/03/07 05:59:57;;;;;;;16.40;11.82;;;10.20;99.90;;;;;;5060597;28;20051;-76
2022/03/07 06:02:23;;;;;;;16.90;11.90;;;10.20;99.90;;;;;;5033544;28;20045;-74
2022/03/07 06:04:49;;;;;;;16.83;11.98;;;10.20;99.90;;;;;;5048062;28;20116;-74
2022/03/07 06:07:15;;;;;;;17.38;12.52;;;10.20;99.90;;;;;;5073323;28;20029;-75
2022/03/07 06:09:42;;;;;;;19.02;12.52;;;10.20;99.90;;;;;;5061551;28;20032;-75
2022/03/07 06:12:08;;;;;;;17.17;11.98;;;10.10;99.90;;;;;;5050063;28;20128;-75
2022/03/07 06:14:34;;;;;;;16.48;12.18;;;10.20;99.90;;;;;;5034514;28;20037;-76
2022/03/07 06:17:00;;;;;;;17.77;12.13;;;10.20;99.90;;;;;;5036321;28;20124;-75
2022/03/07 06:19:27;;;;;;;19.92;13.50;;;10.20;99.90;;;;;;5038945;28;20169;-76
2022/03/07 06:21:53;;;;;;;17.65;12.18;;;10.10;99.90;;;;;;5050721;28;20052;-76
2022/03/07 06:24:19;;;;;;;19.55;12.30;;;10.10;99.90;;;;;;5039516;28;20036;-75
2022/03/07 06:26:45;;;;;;;17.65;13.55;;;10.10;99.90;;;;;;5036948;28;20076;-75
2022/03/07 06:29:11;;;;;;;18.08;12.55;;;10.00;99.90;;;;;;5053972;28;20140;-75
2022/03/07 06:31:36;;;;;;;20.40;13.07;;;10.10;99.90;;;;;;5067698;28;20160;-76
2022/03/07 06:34:03;;;;;;;15.82;12.15;;;10.10;99.90;;;;;;5045989;28;20105;-77
2022/03/07 06:36:29;;;;;;;16.25;12.40;;;10.10;99.90;;;;;;5055022;28;20171;-75
2022/03/07 06:38:55;;;;;;;19.70;13.10;;;10.20;99.90;;;;;;5040253;28;20477;-74
2022/03/07 06:41:21;;;;;;;17.02;12.73;;;10.30;99.90;;;;;;5041843;28;20060;-76
2022/03/07 06:43:47;;;;;;;20.67;12.85;;;10.30;99.90;;;;;;5037673;28;20064;-78
2022/03/07 06:46:13;;;;;;;23.58;13.40;;;10.40;99.90;;;;;;5038189;28;20052;-75
2022/03/07 06:48:40;;;;;;;19.27;13.40;;;10.50;99.90;;;;;;5058669;28;20041;-75
2022/03/07 06:51:06;;;;;;;22.00;13.75;;;10.60;99.90;;;;;;5058643;28;20970;-74
2022/03/07 06:53:34;;;;;;;17.25;12.88;;;10.60;99.90;;;;;;5068882;28;20084;-76
2022/03/07 06:56:00;;;;;;;19.88;11.80;;;10.70;99.90;;;;;;5055103;28;20065;-75
2022/03/07 06:58:25;;;;;;;18.00;12.57;;;10.70;99.90;;;;;;5058677;28;20037;-75
2022/03/07 07:00:51;;;;;;;16.25;11.93;;;10.80;99.90;;;;;;5059948;28;20040;-75
2022/03/07 07:03:17;;;;;;;15.65;12.15;;;10.80;99.90;;;;;;5055208;28;20060;-75
2022/03/07 07:05:44;;;;;;;16.48;12.75;;;10.90;99.90;;;;;;5053986;28;20062;-76
2022/03/07 07:08:10;;;;;;;18.92;13.23;;;11.00;99.90;;;;;;5056127;28;20045;-76
2022/03/07 07:10:38;;;;;;;16.10;11.70;;;11.00;99.90;;;;;;5057784;28;20033;-76
2022/03/07 07:13:04;;;;;;;16.48;11.35;;;11.00;99.90;;;;;;5047730;28;20040;-75
2022/03/07 07:15:30;;;;;;;19.02;12.80;;;11.00;99.90;;;;;;5019129;28;20156;-75
2022/03/07 07:17:56;;;;;;;15.77;11.80;;;11.10;99.90;;;;;;5036054;28;20056;-75
2022/03/07 07:20:22;;;;;;;16.33;11.43;;;11.10;99.90;;;;;;5057130;28;20056;-75
2022/03/07 07:22:48;;;;;;;20.95;12.63;;;11.20;99.90;;;;;;5056188;28;20048;-74
2022/03/07 07:25:15;;;;;;;17.20;12.98;;;11.20;99.90;;;;;;5054925;28;20039;-75
2022/03/07 07:27:41;;;;;;;18.20;12.63;;;11.30;99.90;;;;;;5048656;28;20048;-75
2022/03/07 07:30:09;;;;;;;18.30;12.82;;;11.40;99.90;;;;;;5035615;28;20489;-76
2022/03/07 07:32:38;;;;;;;19.10;11.55;;;11.30;99.90;;;;;;5042554;28;20048;-76
2022/03/07 07:35:10;;;;;;;18.60;11.52;;;11.30;99.90;;;;;;5045961;28;20037;-77
2022/03/07 07:37:37;;;;;;;16.25;10.85;;;11.30;99.90;;;;;;5048353;28;20033;-76
2022/03/07 07:40:05;;;;;;;15.00;9.93;;;11.40;99.90;;;;;;5041288;28;20041;-77
2022/03/07 07:42:31;;;;;;;13.63;10.13;;;11.30;99.90;;;;;;5058547;28;20052;-74
2022/03/07 07:44:58;;;;;;;16.02;10.68;;;11.40;99.90;;;;;;5050808;28;20040;-76
2022/03/07 07:47:24;;;;;;;20.15;11.60;;;11.40;99.90;;;;;;5039568;28;20041;-74
2022/03/07 07:49:50;;;;;;;15.82;11.02;;;11.50;99.90;;;;;;5036954;28;20044;-75
2022/03/07 07:52:15;;;;;;;17.33;11.18;;;11.50;99.90;;;;;;5036759;28;20037;-76
2022/03/07 07:54:41;;;;;;;14.25;9.63;;;11.70;99.90;;;;;;5048553;28;20036;-76
2022/03/07 07:57:07;;;;;;;13.80;9.73;;;11.70;99.90;;;;;;5039990;28;20069;-77
2022/03/07 07:59:34;;;;;;;19.13;10.40;;;11.90;99.90;;;;;;5054792;28;20040;-76
2022/03/07 08:01:59;;;;;;;16.30;10.13;;;11.90;99.90;;;;;;5049144;28;20031;-76
2022/03/07 08:04:26;;;;;;;14.25;9.52;;;11.90;99.90;;;;;;5041348;28;20029;-77
2022/03/07 08:06:54;;;;;;;16.55;9.88;;;12.00;99.90;;;;;;5042285;28;20408;-75
2022/03/07 08:09:20;;;;;;;14.50;9.15;;;12.00;99.90;;;;;;5052504;28;20036;-76
2022/03/07 08:11:46;;;;;;;16.77;9.68;;;12.00;99.90;;;;;;5037914;28;20060;-75
2022/03/07 08:14:13;;;;;;;15.10;9.65;;;11.90;99.90;;;;;;5040460;28;20037;-76
2022/03/07 08:16:39;;;;;;;15.18;9.02;;;12.00;99.90;;;;;;5052101;28;20083;-76
2022/03/07 08:19:05;;;;;;;13.05;8.60;;;12.00;99.90;;;;;;5028702;28;20093;-76
2022/03/07 08:21:32;;;;;;;10.73;8.00;;;11.90;99.90;;;;;;5047713;28;20040;-75
2022/03/07 08:24:00;;;;;;;10.98;7.72;;;11.90;99.90;;;;;;5067273;28;20036;-75
2022/03/07 08:26:27;;;;;;;11.93;7.30;;;11.80;99.90;;;;;;5050042;28;20044;-75
2022/03/07 08:28:54;;;;;;;13.43;7.68;;;11.80;99.90;;;;;;5049943;28;20037;-75
2022/03/07 08:31:19;;;;;;;12.57;7.80;;;11.70;99.90;;;;;;5046033;28;20050;-75
2022/03/07 08:33:46;;;;;;;13.93;7.90;;;11.70;99.90;;;;;;5047603;28;20071;-75
2022/03/07 08:36:12;;;;;;;13.18;7.95;;;11.60;99.90;;;;;;5036784;28;20048;-76
2022/03/07 08:38:38;;;;;;;16.95;9.57;;;11.60;99.90;;;;;;5058505;28;20144;-74
2022/03/07 08:41:08;;;;;;;16.90;8.80;;;11.60;99.90;;;;;;5048116;28;20550;-76
2022/03/07 08:43:35;;;;;;;15.30;9.13;;;11.60;99.90;;;;;;5045224;28;20040;-73
2022/03/07 08:46:01;;;;;;;16.20;8.88;;;11.70;99.90;;;;;;5072255;28;20045;-74
2022/03/07 08:48:29;;;;;;;14.68;8.88;;;11.70;99.90;;;;;;5056318;28;20040;-76
2022/03/07 08:50:56;;;;;;;13.45;8.63;;;11.70;99.90;;;;;;5053723;28;20063;-73
2022/03/07 08:53:22;;;;;;;14.25;8.85;;;11.80;99.90;;;;;;5055409;28;20455;-74
2022/03/07 08:55:49;;;;;;;15.65;8.43;;;11.80;99.90;;;;;;5071647;28;20048;-75
2022/03/07 08:58:15;;;;;;;16.52;8.43;;;11.80;99.90;;;;;;5048349;28;20052;-75
2022/03/07 09:00:42;;;;;;;15.43;8.65;;;11.80;99.90;;;;;;5044348;28;20052;-74
2022/03/07 09:03:08;;;;;;;13.90;8.80;;;11.90;99.90;;;;;;5042499;28;20476;-75
2022/03/07 09:05:35;;;;;;;12.52;8.02;;;11.90;99.90;;;;;;5043512;28;20043;-75
2022/03/07 09:08:02;;;;;;;14.02;7.97;;;11.90;99.90;;;;;;5048888;28;20118;-76
2022/03/07 09:10:28;;;;;;;15.32;8.20;;;11.90;99.90;;;;;;5019124;28;20047;-75
2022/03/07 09:12:54;;;;;;;13.25;7.97;;;12.00;99.90;;;;;;5029554;28;20033;-77
2022/03/07 09:15:22;;;;;;;14.35;8.18;;;12.10;99.90;;;;;;5031111;28;20083;-76
2022/03/07 09:17:48;;;;;;;14.93;8.43;;;12.20;99.90;;;;;;5040205;28;20040;-76
2022/03/07 09:20:16;;;;;;;15.02;8.20;;;12.30;99.90;;;;;;5044068;28;20431;-76
2022/03/07 09:22:44;;;;;;;13.48;7.85;;;12.50;99.90;;;;;;5041131;28;20063;-75
2022/03/07 09:25:12;;;;;;;12.18;7.63;;;12.60;99.90;;;;;;5043343;28;20182;-75
2022/03/07 09:27:39;;;;;;;12.85;7.90;;;12.70;99.90;;;;;;5062986;28;20476;-75
2022/03/07 09:30:06;;;;;;;10.43;7.18;;;12.80;99.90;;;;;;5029251;28;20040;-75
2022/03/07 09:32:33;;;;;;;10.05;7.53;;;12.80;99.90;;;;;;5036602;28;20049;-76
2022/03/07 09:34:59;;;;;;;12.55;7.43;;;12.80;99.90;;;;;;5045878;28;20091;-74
2022/03/07 09:37:25;;;;;;;11.68;8.10;;;13.00;99.90;;;;;;5009993;28;20056;-75
2022/03/07 09:39:51;;;;;;;14.13;7.97;;;12.90;99.90;;;;;;5045983;28;20040;-74
2022/03/07 09:42:18;;;;;;;10.88;7.90;;;12.90;99.90;;;;;;5049745;28;20498;-75
2022/03/07 09:44:45;;;;;;;14.75;8.60;;;12.80;99.90;;;;;;5050438;28;20047;-74
2022/03/07 09:47:11;;;;;;;13.05;8.38;;;12.80;99.60;;;;;;5051340;28;20041;-76
2022/03/07 09:49:37;;;;;;;16.52;8.90;;;12.70;99.10;;;;;;5036330;28;20068;-76
2022/03/07 09:52:03;;;;;;;11.85;8.23;;;12.70;99.30;;;;;;5038838;28;20040;-74
2022/03/07 09:54:29;;;;;;;12.98;7.93;;;12.70;99.60;;;;;;5054294;28;20435;-74
2022/03/07 09:56:56;;;;;;;13.10;8.60;;;12.70;99.50;;;;;;5040399;28;20103;-75
2022/03/07 09:59:24;;;;;;;12.00;8.43;;;12.80;99.60;;;;;;5022199;28;20036;-77
2022/03/07 10:02:14;;;;;;;14.90;8.02;;;12.80;99.60;;;;;;5036361;28;20836;-74
2022/03/07 10:04:45;;;;;;;16.02;8.57;;;12.70;99.80;;;;;;5034111;28;20179;-75
2022/03/07 10:07:13;;;;;;;11.50;8.30;;;12.60;99.90;;;;;;5026510;28;20551;-75
2022/03/07 10:09:41;;;;;;;13.32;7.47;;;12.60;99.90;;;;;;5026430;28;20090;-75
2022/03/07 10:12:09;;;;;;;10.57;7.30;;;12.60;99.90;;;;;;5052175;28;20048;-75
2022/03/07 10:14:45;;;;;;;12.75;7.65;;;12.60;99.90;;;;;;5030234;28;20462;-74
2022/03/07 10:17:22;;;;;;;11.43;7.18;;;12.50;99.90;;;;;;5030529;28;20041;-74
2022/03/07 10:19:50;;;;;;;11.00;7.35;;;12.60;99.90;;;;;;5040984;28;20386;-75
2022/03/07 10:22:22;;;;;;;12.80;7.50;;;12.60;99.90;;;;;;5033346;28;20025;-74
2022/03/07 10:25:10;;;;;;;13.52;7.40;;;12.80;99.90;;;;;;5037057;28;20440;-75
2022/03/07 10:27:39;;;;;;;10.60;7.15;;;12.90;99.90;;;;;;5035633;28;20043;-74
2022/03/07 10:30:14;;;;;;;13.32;7.03;;;13.00;99.90;;;;;;5036650;28;20555;-74
2022/03/07 10:32:44;;;;;;;14.00;7.70;;;13.10;99.90;;;;;;5023686;28;20041;-75
2022/03/07 10:35:32;;;;;;;14.00;7.85;;;13.10;99.90;;;;;;5019616;28;20037;-74
2022/03/07 10:38:01;;;;;;;12.63;7.28;;;13.10;99.90;;;;;;5024482;28;21902;-74
2022/03/07 10:40:29;;;;;;;12.65;7.50;;;13.20;99.80;;;;;;5049160;28;20063;-74
2022/03/07 10:42:56;;;;;;;10.85;7.38;;;13.30;99.70;;;;;;5053262;28;20032;-75
2022/03/07 10:45:24;;;;;;;13.07;7.40;;;13.20;99.80;;;;;;5040554;28;20029;-74
2022/03/07 10:47:57;;;;;;;11.10;7.13;;;13.10;99.70;;;;;;5047225;28;20037;-75
2022/03/07 10:50:24;;;;;;;;;;;13.20;99.40;;;;;;5042859;28;20077;-74
2022/03/07 10:52:53;;;;;;;12.55;7.28;;;13.10;99.20;;;;;;5027485;28;19925;-75
2022/03/07 10:55:25;;;;;;;14.32;7.05;;;13.10;99.30;;;;;;5030653;28;20049;-75
2022/03/07 10:57:51;;;;;;;11.38;7.93;;;13.20;99.20;;;;;;5012379;28;20047;-75
2022/03/07 11:00:18;;;;;;;17.67;7.75;;;13.20;99.00;;;;;;5026534;28;20037;-75
2022/03/07 11:02:47;;;;;;;10.63;7.18;;;13.20;98.80;;;;;;5033057;28;20039;-75
2022/03/07 11:05:16;;;;;;;11.45;7.50;;;13.40;98.90;;;;;;5025581;28;20149;-75
2022/03/07 11:07:49;;;;;;;10.55;7.07;;;13.40;98.30;;;;;;5025256;28;20389;-75
2022/03/07 11:10:17;;;;;;;12.23;7.47;;;13.40;98.00;;;;;;5026254;28;20135;-74
2022/03/07 11:12:44;;;;;;;12.10;7.57;;;13.70;98.20;;;;;;5031319;28;20045;-74
2022/03/07 11:15:14;;;;;;;10.90;6.93;;;13.80;97.90;;;;;;5043810;28;20385;-74
2022/03/07 11:17:46;;;;;;;12.48;8.00;;;13.90;97.90;;;;;;5046010;28;20045;-74
2022/03/07 11:20:15;;;;;;;12.83;7.80;;;14.10;97.80;;;;;;5051392;28;20100;-73
2022/03/07 11:22:42;;;;;;;11.70;8.23;;;14.10;97.40;;;;;;5049271;28;20407;-74
2022/03/07 11:25:10;;;;;;;12.75;8.10;;;14.20;97.30;;;;;;5039154;28;20393;-74
2022/03/07 11:27:38;;;;;;;14.65;7.80;;;14.10;97.30;;;;;;5037665;28;20452;-74
2022/03/07 11:30:21;;;;;;;13.93;7.70;;;14.20;97.20;;;;;;5034181;28;20571;-76
2022/03/07 11:32:53;;;;;;;12.43;7.55;;;14.40;97.00;;;;;;5039674;28;20491;-75
2022/03/07 11:35:19;;;;;;;12.95;7.53;;;14.40;96.10;;;;;;5058028;28;20041;-75
2022/03/07 11:37:47;;;;;;;12.57;7.72;;;14.60;96.00;;;;;;5035342;28;20037;-75
2022/03/07 11:40:20;;;;;;;15.35;9.23;;;14.80;96.00;;;;;;5031617;28;20510;-75
2022/03/07 11:42:47;;;;;;;16.42;7.75;;;14.90;96.10;;;;;;5038099;28;20029;-75
2022/03/07 11:45:18;;;;;;;11.82;7.95;;;15.30;96.40;;;;;;5029529;28;20037;-75
2022/03/07 11:47:47;;;;;;;14.20;7.63;;;15.40;96.60;;;;;;5044793;28;20060;-75
2022/03/07 11:50:15;;;;;;;12.63;6.93;;;15.60;96.30;;;;;;5055590;28;20044;-75
2022/03/07 11:52:42;;;;;;;11.88;7.22;;;15.80;96.20;;;;;;5050246;28;20036;-76
2022/03/07 11:55:12;;;;;;;12.20;7.20;;;16.20;95.90;;;;;;5047058;28;20039;-75
2022/03/07 11:57:59;;;;;;;9.98;6.72;;;16.40;95.40;;;;;;5051102;28;20040;-75
2022/03/07 12:00:31;;;;;;;12.15;6.50;;;16.90;94.60;;;;;;5041693;28;20028;-75
2022/03/07 12:03:14;;;;;;;13.23;7.15;;;17.20;93.60;;;;;;5046584;28;20040;-76
2022/03/07 12:05:42;;;;;;;9.85;6.97;;;17.50;93.60;;;;;;5042404;28;20056;-76
2022/03/07 12:08:08;;;;;;;11.68;6.93;;;17.20;93.40;;;;;;5037741;28;20155;-76
2022/03/07 12:10:34;;;;;;;11.13;6.47;;;17.30;93.90;;;;;;5041329;28;20143;-75
2022/03/07 12:13:10;;;;;;;12.05;6.35;;;17.30;94.10;;;;;;5020067;28;20055;-76
2022/03/07 12:15:47;;;;;;;9.93;7.10;;;17.20;94.40;;;;;;5031841;28;20128;-75
2022/03/07 12:18:14;;;;;;;12.38;6.70;;;17.00;94.60;;;;;;5039961;28;20143;-75
2022/03/07 12:20:47;;;;;;;12.10;6.95;;;16.50;95.30;;;;;;5033884;28;20037;-75
2022/03/07 12:23:17;;;;;;;12.18;6.03;;;16.40;95.80;;;;;;5033052;28;20033;-75
2022/03/07 12:25:44;;;;;;;10.95;6.65;;;16.20;96.10;;;;;;5036902;28;20041;-74
2022/03/07 12:28:11;;;;;;;10.98;7.13;;;15.90;96.40;;;;;;5039855;28;20065;-76
2022/03/07 12:30:39;;;;;;;10.18;6.80;;;15.80;96.60;;;;;;5028665;28;20468;-75
2022/03/07 12:33:09;;;;;;;9.57;6.65;;;15.90;97.00;;;;;;5016084;28;20057;-74